sensor_id;sensor_type;location;lat;lon;timestamp;P1;durP1;ratioP1;P2;durP2;ratioP2
56255;SDS011;57229;51.432;-2.598;2023-09-12T00:00:53;6.93;;;5.53;;
56255;SDS011;57229;51.432;-2.598;2023-09-12T00:03:19;7.65;;;5.70;;
56255;SDS011;57229;51.432;-2.598;2023-09-12T00:05:52;8.05;;;5.85;;
56255;SDS011;57229;51.432;-2.598;2023-09-12T00:08:19;8.88;;;5.55;;
56255;SDS011;57229;51.432;-2.598;2023-09-12T00:10:45;6.22;;;5.43;;
56255;SDS011;57229;51.432;-2.598;2023-09-12T00:13:11;9.73;;;5.45;;
56255;SDS011;57229;51.432;-2.598;2023-09-12T00:15:36;12.15;;;5.75;;
56255;SDS011;57229;51.432;-2.598;2023-09-12T00:18:02;9.02;;;5.95;;
56255;SDS011;57229;51.432;-2.598;2023-09-12T00:20:28;8.15;;;5.50;;
56255;SDS011;57229;51.432;-2.598;2023-09-12T00:22:53;9.38;;;5.50;;
56255;SDS011;57229;51.432;-2.598;2023-09-12T00:25:20;6.80;;;5.25;;
56255;SDS011;57229;51.432;-2.598;2023-09-12T00:27:46;11.48;;;5.72;;
56255;SDS011;57229;51.432;-2.598;2023-09-12T00:30:13;7.80;;;5.65;;
56255;SDS011;57229;51.432;-2.598;2023-09-12T00:32:39;8.88;;;5.60;;
56255;SDS011;57229;51.432;-2.598;2023-09-12T00:35:04;7.15;;;5.30;;
56255;SDS011;57229;51.432;-2.598;2023-09-12T00:37:30;9.80;;;5.20;;
56255;SDS011;57229;51.432;-2.598;2023-09-12T00:39:56;7.60;;;5.70;;
56255;SDS011;57229;51.432;-2.598;2023-09-12T00:42:24;6.60;;;5.55;;
56255;SDS011;57229;51.432;-2.598;2023-09-12T00:44:50;5.72;;;5.22;;
56255;SDS011;57229;51.432;-2.598;2023-09-12T00:47:16;7.97;;;5.20;;
56255;SDS011;57229;51.432;-2.598;2023-09-12T00:49:42;10.88;;;4.95;;
56255;SDS011;57229;51.432;-2.598;2023-09-12T00:52:08;10.30;;;5.47;;
56255;SDS011;57229;51.432;-2.598;2023-09-12T00:54:36;6.75;;;5.05;;
56255;SDS011;57229;51.432;-2.598;2023-09-12T00:57:02;7.88;;;5.35;;
56255;SDS011;57229;51.432;-2.598;2023-09-12T00:59:28;10.63;;;5.15;;
56255;SDS011;57229;51.432;-2.598;2023-09-12T01:01:54;6.60;;;5.13;;
56255;SDS011;57229;51.432;-2.598;2023-09-12T01:04:20;9.63;;;5.25;;
56255;SDS011;57229;51.432;-2.598;2023-09-12T01:06:45;7.68;;;4.80;;
56255;SDS011;57229;51.432;-2.598;2023-09-12T01:09:13;6.18;;;4.95;;
56255;SDS011;57229;51.432;-2.598;2023-09-12T01:11:39;5.70;;;5.20;;
56255;SDS011;57229;51.432;-2.598;2023-09-12T01:14:05;8.07;;;4.95;;
56255;SDS011;57229;51.432;-2.598;2023-09-12T01:16:31;10.27;;;5.38;;
56255;SDS011;57229;51.432;-2.598;2023-09-12T01:18:56;6.15;;;5.05;;
56255;SDS011;57229;51.432;-2.598;2023-09-12T01:21:44;11.18;;;5.43;;
56255;SDS011;57229;51.432;-2.598;2023-09-12T01:29:51;6.75;;;5.22;;
56255;SDS011;57229;51.432;-2.598;2023-09-12T01:32:21;5.72;;;5.10;;
56255;SDS011;57229;51.432;-2.598;2023-09-12T01:34:50;7.07;;;5.10;;
56255;SDS011;57229;51.432;-2.598;2023-09-12T01:37:16;8.10;;;4.80;;
56255;SDS011;57229;51.432;-2.598;2023-09-12T01:39:42;7.50;;;4.53;;
56255;SDS011;57229;51.432;-2.598;2023-09-12T01:42:11;7.28;;;4.90;;
56255;SDS011;57229;51.432;-2.598;2023-09-12T01:44:40;6.85;;;4.70;;
56255;SDS011;57229;51.432;-2.598;2023-09-12T01:47:08;5.97;;;4.60;;
56255;SDS011;57229;51.432;-2.598;2023-09-12T01:49:36;6.00;;;5.18;;
56255;SDS011;57229;51.432;-2.598;2023-09-12T01:52:04;6.28;;;5.25;;
56255;SDS011;57229;51.432;-2.598;2023-09-12T01:54:30;6.95;;;4.63;;
56255;SDS011;57229;51.432;-2.598;2023-09-12T01:56:58;6.68;;;4.70;;
56255;SDS011;57229;51.432;-2.598;2023-09-12T01:59:24;6.18;;;4.70;;
56255;SDS011;57229;51.432;-2.598;2023-09-12T02:01:50;4.78;;;4.45;;
56255;SDS011;57229;51.432;-2.598;2023-09-12T02:04:16;4.70;;;4.30;;
56255;SDS011;57229;51.432;-2.598;2023-09-12T02:06:42;5.43;;;4.03;;
56255;SDS011;57229;51.432;-2.598;2023-09-12T02:09:07;6.38;;;4.35;;
56255;SDS011;57229;51.432;-2.598;2023-09-12T02:11:33;5.47;;;4.25;;
56255;SDS011;57229;51.432;-2.598;2023-09-12T02:13:59;6.25;;;4.43;;
56255;SDS011;57229;51.432;-2.598;2023-09-12T02:16:24;4.55;;;4.15;;
56255;SDS011;57229;51.432;-2.598;2023-09-12T02:18:50;5.28;;;4.18;;
56255;SDS011;57229;51.432;-2.598;2023-09-12T02:21:15;5.15;;;3.90;;
56255;SDS011;57229;51.432;-2.598;2023-09-12T02:23:41;7.60;;;4.05;;
56255;SDS011;57229;51.432;-2.598;2023-09-12T02:26:07;5.93;;;3.92;;
56255;SDS011;57229;51.432;-2.598;2023-09-12T02:28:33;5.00;;;3.95;;
56255;SDS011;57229;51.432;-2.598;2023-09-12T02:30:58;4.43;;;3.90;;
56255;SDS011;57229;51.432;-2.598;2023-09-12T02:33:24;4.50;;;4.10;;
56255;SDS011;57229;51.432;-2.598;2023-09-12T02:35:49;4.40;;;4.00;;
56255;SDS011;57229;51.432;-2.598;2023-09-12T02:38:16;5.10;;;4.60;;
56255;SDS011;57229;51.432;-2.598;2023-09-12T02:40:42;5.03;;;4.32;;
56255;SDS011;57229;51.432;-2.598;2023-09-12T02:43:08;5.10;;;4.60;;
56255;SDS011;57229;51.432;-2.598;2023-09-12T02:45:34;5.15;;;4.57;;
56255;SDS011;57229;51.432;-2.598;2023-09-12T02:47:59;7.13;;;4.50;;
56255;SDS011;57229;51.432;-2.598;2023-09-12T02:50:25;7.70;;;5.03;;
56255;SDS011;57229;51.432;-2.598;2023-09-12T02:52:50;10.77;;;5.35;;
56255;SDS011;57229;51.432;-2.598;2023-09-12T02:55:16;6.22;;;4.60;;
56255;SDS011;57229;51.432;-2.598;2023-09-12T02:57:41;11.02;;;4.93;;
56255;SDS011;57229;51.432;-2.598;2023-09-12T03:00:07;9.38;;;5.20;;
56255;SDS011;57229;51.432;-2.598;2023-09-12T03:02:34;5.85;;;4.30;;
56255;SDS011;57229;51.432;-2.598;2023-09-12T03:05:00;8.48;;;4.43;;
56255;SDS011;57229;51.432;-2.598;2023-09-12T03:07:26;5.82;;;4.80;;
56255;SDS011;57229;51.432;-2.598;2023-09-12T03:09:52;5.82;;;4.38;;
56255;SDS011;57229;51.432;-2.598;2023-09-12T03:12:17;5.03;;;4.38;;
56255;SDS011;57229;51.432;-2.598;2023-09-12T03:14:43;6.55;;;5.03;;
56255;SDS011;57229;51.432;-2.598;2023-09-12T03:17:09;7.00;;;4.60;;
56255;SDS011;57229;51.432;-2.598;2023-09-12T03:19:34;5.18;;;4.53;;
56255;SDS011;57229;51.432;-2.598;2023-09-12T03:22:00;6.97;;;4.70;;
56255;SDS011;57229;51.432;-2.598;2023-09-12T03:24:25;9.15;;;4.80;;
56255;SDS011;57229;51.432;-2.598;2023-09-12T03:26:53;5.00;;;4.40;;
56255;SDS011;57229;51.432;-2.598;2023-09-12T03:29:19;7.78;;;4.75;;
56255;SDS011;57229;51.432;-2.598;2023-09-12T03:31:45;11.32;;;5.05;;
56255;SDS011;57229;51.432;-2.598;2023-09-12T03:34:10;4.82;;;4.40;;
56255;SDS011;57229;51.432;-2.598;2023-09-12T03:36:36;5.47;;;4.80;;
56255;SDS011;57229;51.432;-2.598;2023-09-12T03:39:01;7.68;;;4.50;;
56255;SDS011;57229;51.432;-2.598;2023-09-12T03:41:30;6.53;;;4.60;;
56255;SDS011;57229;51.432;-2.598;2023-09-12T03:43:56;5.25;;;4.72;;
56255;SDS011;57229;51.432;-2.598;2023-09-12T03:46:21;9.10;;;4.68;;
56255;SDS011;57229;51.432;-2.598;2023-09-12T03:48:47;5.82;;;4.70;;
56255;SDS011;57229;51.432;-2.598;2023-09-12T03:51:14;7.13;;;4.80;;
56255;SDS011;57229;51.432;-2.598;2023-09-12T03:53:39;7.65;;;4.85;;
56255;SDS011;57229;51.432;-2.598;2023-09-12T03:56:05;8.05;;;5.18;;
56255;SDS011;57229;51.432;-2.598;2023-09-12T03:58:31;6.53;;;5.00;;
56255;SDS011;57229;51.432;-2.598;2023-09-12T04:00:57;5.30;;;4.80;;
56255;SDS011;57229;51.432;-2.598;2023-09-12T04:03:22;9.38;;;6.10;;
56255;SDS011;57229;51.432;-2.598;2023-09-12T04:05:50;5.57;;;5.05;;
56255;SDS011;57229;51.432;-2.598;2023-09-12T04:08:16;8.38;;;5.60;;
56255;SDS011;57229;51.432;-2.598;2023-09-12T04:10:42;6.38;;;5.72;;
56255;SDS011;57229;51.432;-2.598;2023-09-12T04:13:08;5.50;;;5.05;;
56255;SDS011;57229;51.432;-2.598;2023-09-12T04:15:34;6.63;;;5.32;;
56255;SDS011;57229;51.432;-2.598;2023-09-12T04:17:59;7.18;;;5.68;;
56255;SDS011;57229;51.432;-2.598;2023-09-12T04:20:25;7.47;;;5.50;;
56255;SDS011;57229;51.432;-2.598;2023-09-12T04:22:51;8.55;;;5.28;;
56255;SDS011;57229;51.432;-2.598;2023-09-12T04:25:16;9.30;;;5.70;;
56255;SDS011;57229;51.432;-2.598;2023-09-12T04:27:44;9.65;;;5.97;;
56255;SDS011;57229;51.432;-2.598;2023-09-12T04:30:10;9.40;;;5.90;;
56255;SDS011;57229;51.432;-2.598;2023-09-12T04:32:36;7.90;;;5.88;;
56255;SDS011;57229;51.432;-2.598;2023-09-12T04:35:02;8.15;;;6.00;;
56255;SDS011;57229;51.432;-2.598;2023-09-12T04:37:28;7.03;;;6.10;;
56255;SDS011;57229;51.432;-2.598;2023-09-12T04:39:54;8.18;;;6.32;;
56255;SDS011;57229;51.432;-2.598;2023-09-12T04:42:19;6.78;;;5.57;;
56255;SDS011;57229;51.432;-2.598;2023-09-12T04:44:45;8.25;;;5.78;;
56255;SDS011;57229;51.432;-2.598;2023-09-12T04:47:11;9.00;;;5.72;;
56255;SDS011;57229;51.432;-2.598;2023-09-12T04:49:37;6.30;;;5.70;;
56255;SDS011;57229;51.432;-2.598;2023-09-12T04:52:04;10.85;;;5.82;;
56255;SDS011;57229;51.432;-2.598;2023-09-12T04:54:29;6.63;;;5.72;;
56255;SDS011;57229;51.432;-2.598;2023-09-12T04:56:55;8.05;;;5.72;;
56255;SDS011;57229;51.432;-2.598;2023-09-12T04:59:21;7.10;;;5.65;;
56255;SDS011;57229;51.432;-2.598;2023-09-12T05:01:46;7.53;;;5.68;;
56255;SDS011;57229;51.432;-2.598;2023-09-12T05:04:12;6.82;;;6.13;;
56255;SDS011;57229;51.432;-2.598;2023-09-12T05:06:37;8.93;;;5.90;;
56255;SDS011;57229;51.432;-2.598;2023-09-12T05:09:05;7.28;;;6.10;;
56255;SDS011;57229;51.432;-2.598;2023-09-12T05:11:31;12.55;;;5.53;;
56255;SDS011;57229;51.432;-2.598;2023-09-12T05:13:56;10.88;;;6.13;;
56255;SDS011;57229;51.432;-2.598;2023-09-12T05:16:22;7.13;;;5.35;;
56255;SDS011;57229;51.432;-2.598;2023-09-12T05:18:47;11.30;;;5.82;;
56255;SDS011;57229;51.432;-2.598;2023-09-12T05:21:14;7.07;;;5.43;;
56255;SDS011;57229;51.432;-2.598;2023-09-12T05:23:40;5.70;;;5.20;;
56255;SDS011;57229;51.432;-2.598;2023-09-12T05:26:05;11.75;;;5.65;;
56255;SDS011;57229;51.432;-2.598;2023-09-12T05:28:31;6.90;;;5.63;;
56255;SDS011;57229;51.432;-2.598;2023-09-12T05:30:57;5.47;;;4.97;;
56255;SDS011;57229;51.432;-2.598;2023-09-12T05:33:22;7.93;;;5.70;;
56255;SDS011;57229;51.432;-2.598;2023-09-12T05:35:48;6.63;;;5.30;;
56255;SDS011;57229;51.432;-2.598;2023-09-12T05:38:13;7.47;;;5.85;;
56255;SDS011;57229;51.432;-2.598;2023-09-12T05:40:39;7.90;;;5.50;;
56255;SDS011;57229;51.432;-2.598;2023-09-12T05:43:04;6.97;;;5.05;;
56255;SDS011;57229;51.432;-2.598;2023-09-12T05:45:30;6.72;;;5.10;;
56255;SDS011;57229;51.432;-2.598;2023-09-12T05:47:57;11.07;;;5.60;;
56255;SDS011;57229;51.432;-2.598;2023-09-12T05:50:23;8.75;;;5.20;;
56255;SDS011;57229;51.432;-2.598;2023-09-12T05:52:49;5.82;;;5.20;;
56255;SDS011;57229;51.432;-2.598;2023-09-12T05:55:15;6.22;;;5.40;;
56255;SDS011;57229;51.432;-2.598;2023-09-12T05:57:41;9.50;;;5.68;;
56255;SDS011;57229;51.432;-2.598;2023-09-12T06:00:07;8.75;;;5.75;;
56255;SDS011;57229;51.432;-2.598;2023-09-12T06:02:37;10.27;;;5.90;;
56255;SDS011;57229;51.432;-2.598;2023-09-12T06:05:03;6.90;;;5.88;;
56255;SDS011;57229;51.432;-2.598;2023-09-12T06:07:30;8.40;;;6.00;;
56255;SDS011;57229;51.432;-2.598;2023-09-12T06:09:57;7.93;;;5.68;;
56255;SDS011;57229;51.432;-2.598;2023-09-12T06:12:22;12.43;;;6.15;;
56255;SDS011;57229;51.432;-2.598;2023-09-12T06:14:48;6.88;;;5.60;;
56255;SDS011;57229;51.432;-2.598;2023-09-12T06:17:14;6.50;;;5.90;;
56255;SDS011;57229;51.432;-2.598;2023-09-12T06:19:39;7.07;;;6.30;;
56255;SDS011;57229;51.432;-2.598;2023-09-12T06:22:05;10.88;;;6.20;;
56255;SDS011;57229;51.432;-2.598;2023-09-12T06:24:31;8.15;;;5.60;;
56255;SDS011;57229;51.432;-2.598;2023-09-12T06:26:56;9.32;;;6.05;;
56255;SDS011;57229;51.432;-2.598;2023-09-12T06:29:22;12.45;;;6.65;;
56255;SDS011;57229;51.432;-2.598;2023-09-12T06:31:48;7.43;;;6.28;;
56255;SDS011;57229;51.432;-2.598;2023-09-12T06:34:13;8.95;;;5.85;;
56255;SDS011;57229;51.432;-2.598;2023-09-12T06:36:39;9.73;;;6.53;;
56255;SDS011;57229;51.432;-2.598;2023-09-12T06:39:06;8.90;;;6.60;;
56255;SDS011;57229;51.432;-2.598;2023-09-12T06:41:32;7.90;;;6.45;;
56255;SDS011;57229;51.432;-2.598;2023-09-12T06:43:57;9.13;;;6.05;;
56255;SDS011;57229;51.432;-2.598;2023-09-12T06:46:23;7.75;;;5.85;;
56255;SDS011;57229;51.432;-2.598;2023-09-12T06:48:50;9.82;;;6.40;;
56255;SDS011;57229;51.432;-2.598;2023-09-12T06:51:15;7.53;;;5.65;;
56255;SDS011;57229;51.432;-2.598;2023-09-12T06:53:41;7.05;;;6.07;;
56255;SDS011;57229;51.432;-2.598;2023-09-12T06:56:07;6.60;;;5.80;;
56255;SDS011;57229;51.432;-2.598;2023-09-12T06:58:33;9.82;;;6.20;;
56255;SDS011;57229;51.432;-2.598;2023-09-12T07:01:05;10.55;;;6.88;;
56255;SDS011;57229;51.432;-2.598;2023-09-12T07:03:32;10.32;;;6.20;;
56255;SDS011;57229;51.432;-2.598;2023-09-12T07:05:57;11.88;;;6.25;;
56255;SDS011;57229;51.432;-2.598;2023-09-12T07:08:23;8.10;;;5.80;;
56255;SDS011;57229;51.432;-2.598;2023-09-12T07:10:49;11.88;;;6.35;;
56255;SDS011;57229;51.432;-2.598;2023-09-12T07:13:14;10.48;;;6.15;;
56255;SDS011;57229;51.432;-2.598;2023-09-12T07:15:40;8.43;;;6.47;;
56255;SDS011;57229;51.432;-2.598;2023-09-12T07:18:06;8.52;;;6.30;;
56255;SDS011;57229;51.432;-2.598;2023-09-12T07:20:32;7.70;;;6.40;;
56255;SDS011;57229;51.432;-2.598;2023-09-12T07:22:59;8.27;;;6.18;;
56255;SDS011;57229;51.432;-2.598;2023-09-12T07:25:24;8.30;;;7.22;;
56255;SDS011;57229;51.432;-2.598;2023-09-12T07:27:50;10.52;;;7.07;;
56255;SDS011;57229;51.432;-2.598;2023-09-12T07:30:16;13.43;;;6.68;;
56255;SDS011;57229;51.432;-2.598;2023-09-12T07:32:42;10.23;;;6.38;;
56255;SDS011;57229;51.432;-2.598;2023-09-12T07:35:07;11.98;;;6.63;;
56255;SDS011;57229;51.432;-2.598;2023-09-12T07:37:33;10.20;;;7.10;;
56255;SDS011;57229;51.432;-2.598;2023-09-12T07:39:59;12.05;;;6.70;;
56255;SDS011;57229;51.432;-2.598;2023-09-12T07:42:25;10.68;;;6.72;;
56255;SDS011;57229;51.432;-2.598;2023-09-12T07:44:51;9.35;;;6.57;;
56255;SDS011;57229;51.432;-2.598;2023-09-12T07:47:17;9.52;;;6.28;;
56255;SDS011;57229;51.432;-2.598;2023-09-12T07:49:43;8.50;;;6.30;;
56255;SDS011;57229;51.432;-2.598;2023-09-12T07:52:08;8.27;;;6.03;;
56255;SDS011;57229;51.432;-2.598;2023-09-12T07:54:34;11.98;;;6.47;;
56255;SDS011;57229;51.432;-2.598;2023-09-12T07:57:01;7.68;;;5.82;;
56255;SDS011;57229;51.432;-2.598;2023-09-12T07:59:28;8.13;;;5.82;;
56255;SDS011;57229;51.432;-2.598;2023-09-12T08:01:53;8.50;;;6.10;;
56255;SDS011;57229;51.432;-2.598;2023-09-12T08:04:19;8.13;;;5.88;;
56255;SDS011;57229;51.432;-2.598;2023-09-12T08:06:44;9.55;;;5.32;;
56255;SDS011;57229;51.432;-2.598;2023-09-12T08:09:10;7.57;;;5.18;;
56255;SDS011;57229;51.432;-2.598;2023-09-12T08:11:36;6.40;;;5.45;;
56255;SDS011;57229;51.432;-2.598;2023-09-12T08:14:02;11.07;;;5.63;;
56255;SDS011;57229;51.432;-2.598;2023-09-12T08:16:27;7.68;;;4.93;;
56255;SDS011;57229;51.432;-2.598;2023-09-12T08:18:53;6.07;;;5.45;;
56255;SDS011;57229;51.432;-2.598;2023-09-12T08:21:19;7.10;;;5.32;;
56255;SDS011;57229;51.432;-2.598;2023-09-12T08:23:44;5.85;;;5.07;;
56255;SDS011;57229;51.432;-2.598;2023-09-12T08:26:10;6.68;;;5.43;;
56255;SDS011;57229;51.432;-2.598;2023-09-12T08:28:36;7.57;;;5.28;;
56255;SDS011;57229;51.432;-2.598;2023-09-12T08:31:01;10.57;;;5.32;;
56255;SDS011;57229;51.432;-2.598;2023-09-12T08:33:27;6.10;;;4.70;;
56255;SDS011;57229;51.432;-2.598;2023-09-12T08:35:53;5.07;;;4.57;;
56255;SDS011;57229;51.432;-2.598;2023-09-12T08:38:18;10.10;;;4.78;;
56255;SDS011;57229;51.432;-2.598;2023-09-12T08:40:47;7.68;;;4.50;;
56255;SDS011;57229;51.432;-2.598;2023-09-12T08:43:14;6.68;;;4.70;;
56255;SDS011;57229;51.432;-2.598;2023-09-12T08:45:40;9.48;;;4.75;;
56255;SDS011;57229;51.432;-2.598;2023-09-12T08:48:08;5.75;;;4.88;;
56255;SDS011;57229;51.432;-2.598;2023-09-12T08:50:35;6.20;;;4.75;;
56255;SDS011;57229;51.432;-2.598;2023-09-12T08:53:01;5.15;;;4.43;;
56255;SDS011;57229;51.432;-2.598;2023-09-12T08:55:28;6.82;;;4.53;;
56255;SDS011;57229;51.432;-2.598;2023-09-12T08:57:54;7.82;;;4.57;;
56255;SDS011;57229;51.432;-2.598;2023-09-12T09:00:20;5.28;;;4.55;;
56255;SDS011;57229;51.432;-2.598;2023-09-12T09:02:47;5.07;;;4.57;;
56255;SDS011;57229;51.432;-2.598;2023-09-12T09:05:15;9.52;;;4.60;;
56255;SDS011;57229;51.432;-2.598;2023-09-12T09:07:42;6.40;;;4.45;;
56255;SDS011;57229;51.432;-2.598;2023-09-12T09:10:15;5.10;;;4.65;;
56255;SDS011;57229;51.432;-2.598;2023-09-12T09:12:43;4.93;;;4.43;;
56255;SDS011;57229;51.432;-2.598;2023-09-12T09:15:29;7.30;;;5.10;;
56255;SDS011;57229;51.432;-2.598;2023-09-12T09:17:58;5.72;;;4.75;;
56255;SDS011;57229;51.432;-2.598;2023-09-12T09:20:28;5.30;;;4.40;;
56255;SDS011;57229;51.432;-2.598;2023-09-12T09:22:59;6.35;;;4.70;;
56255;SDS011;57229;51.432;-2.598;2023-09-12T09:25:27;6.72;;;4.47;;
56255;SDS011;57229;51.432;-2.598;2023-09-12T09:27:53;5.80;;;4.40;;
56255;SDS011;57229;51.432;-2.598;2023-09-12T09:30:22;4.55;;;4.18;;
56255;SDS011;57229;51.432;-2.598;2023-09-12T09:33:07;3.30;;;3.10;;
56255;SDS011;57229;51.432;-2.598;2023-09-12T09:35:33;3.17;;;2.88;;
56255;SDS011;57229;51.432;-2.598;2023-09-12T09:37:59;2.90;;;2.70;;
56255;SDS011;57229;51.432;-2.598;2023-09-12T09:40:25;3.10;;;2.90;;
56255;SDS011;57229;51.432;-2.598;2023-09-12T09:42:54;3.20;;;3.00;;
56255;SDS011;57229;51.432;-2.598;2023-09-12T09:45:21;3.20;;;3.00;;
56255;SDS011;57229;51.432;-2.598;2023-09-12T09:47:48;3.30;;;3.10;;
56255;SDS011;57229;51.432;-2.598;2023-09-12T09:50:15;3.40;;;3.20;;
56255;SDS011;57229;51.432;-2.598;2023-09-12T09:52:42;3.30;;;3.10;;
56255;SDS011;57229;51.432;-2.598;2023-09-12T09:55:13;3.17;;;2.83;;
56255;SDS011;57229;51.432;-2.598;2023-09-12T09:57:39;3.40;;;3.10;;
56255;SDS011;57229;51.432;-2.598;2023-09-12T10:00:05;3.28;;;2.97;;
56255;SDS011;57229;51.432;-2.598;2023-09-12T10:02:34;3.65;;;3.45;;
56255;SDS011;57229;51.432;-2.598;2023-09-12T10:05:03;3.40;;;3.20;;
56255;SDS011;57229;51.432;-2.598;2023-09-12T10:07:33;3.80;;;3.10;;
56255;SDS011;57229;51.432;-2.598;2023-09-12T10:10:03;3.40;;;3.20;;
56255;SDS011;57229;51.432;-2.598;2023-09-12T10:12:34;3.47;;;3.17;;
56255;SDS011;57229;51.432;-2.598;2023-09-12T10:15:01;3.33;;;3.13;;
56255;SDS011;57229;51.432;-2.598;2023-09-12T10:17:31;3.53;;;3.33;;
56255;SDS011;57229;51.432;-2.598;2023-09-12T10:20:02;3.58;;;3.38;;
56255;SDS011;57229;51.432;-2.598;2023-09-12T10:22:34;3.95;;;3.40;;
56255;SDS011;57229;51.432;-2.598;2023-09-12T10:25:04;5.78;;;3.30;;
56255;SDS011;57229;51.432;-2.598;2023-09-12T10:27:31;3.60;;;3.40;;
56255;SDS011;57229;51.432;-2.598;2023-09-12T10:29:57;4.65;;;3.50;;
56255;SDS011;57229;51.432;-2.598;2023-09-12T10:32:25;3.72;;;3.42;;
56255;SDS011;57229;51.432;-2.598;2023-09-12T10:34:54;3.63;;;3.42;;
56255;SDS011;57229;51.432;-2.598;2023-09-12T10:37:24;4.35;;;3.53;;
56255;SDS011;57229;51.432;-2.598;2023-09-12T10:39:52;4.82;;;3.80;;
56255;SDS011;57229;51.432;-2.598;2023-09-12T10:42:19;4.22;;;3.83;;
56255;SDS011;57229;51.432;-2.598;2023-09-12T10:44:45;5.15;;;3.80;;
56255;SDS011;57229;51.432;-2.598;2023-09-12T10:47:11;4.30;;;3.90;;
56255;SDS011;57229;51.432;-2.598;2023-09-12T10:49:39;4.45;;;4.00;;
56255;SDS011;57229;51.432;-2.598;2023-09-12T10:52:04;4.32;;;3.80;;
56255;SDS011;57229;51.432;-2.598;2023-09-12T10:57:09;4.32;;;4.03;;
56255;SDS011;57229;51.432;-2.598;2023-09-12T11:02:27;4.60;;;4.18;;
56255;SDS011;57229;51.432;-2.598;2023-09-12T11:04:57;4.30;;;3.90;;
56255;SDS011;57229;51.432;-2.598;2023-09-12T11:07:43;4.20;;;3.80;;
56255;SDS011;57229;51.432;-2.598;2023-09-12T11:12:43;4.22;;;3.83;;
56255;SDS011;57229;51.432;-2.598;2023-09-12T11:15:10;4.20;;;3.88;;
56255;SDS011;57229;51.432;-2.598;2023-09-12T11:17:46;19.52;;;4.30;;
56255;SDS011;57229;51.432;-2.598;2023-09-12T11:20:13;4.15;;;3.85;;
56255;SDS011;57229;51.432;-2.598;2023-09-12T11:30:19;3.90;;;3.60;;
56255;SDS011;57229;51.432;-2.598;2023-09-12T11:32:46;4.25;;;3.90;;
56255;SDS011;57229;51.432;-2.598;2023-09-12T11:35:15;4.05;;;3.70;;
56255;SDS011;57229;51.432;-2.598;2023-09-12T11:37:53;4.38;;;3.90;;
56255;SDS011;57229;51.432;-2.598;2023-09-12T11:40:40;4.10;;;3.80;;
56255;SDS011;57229;51.432;-2.598;2023-09-12T11:43:08;4.25;;;3.95;;
56255;SDS011;57229;51.432;-2.598;2023-09-12T11:45:50;4.88;;;3.50;;
56255;SDS011;57229;51.432;-2.598;2023-09-12T11:48:16;3.80;;;3.50;;
56255;SDS011;57229;51.432;-2.598;2023-09-12T11:50:42;4.45;;;4.05;;
56255;SDS011;57229;51.432;-2.598;2023-09-12T11:53:18;3.85;;;3.63;;
56255;SDS011;57229;51.432;-2.598;2023-09-12T11:55:46;4.10;;;3.70;;
56255;SDS011;57229;51.432;-2.598;2023-09-12T11:58:16;4.10;;;3.70;;
56255;SDS011;57229;51.432;-2.598;2023-09-12T12:00:51;5.18;;;4.10;;
56255;SDS011;57229;51.432;-2.598;2023-09-12T12:03:24;4.90;;;4.18;;
56255;SDS011;57229;51.432;-2.598;2023-09-12T12:05:51;4.00;;;3.70;;
56255;SDS011;57229;51.432;-2.598;2023-09-12T12:08:17;4.40;;;4.00;;
56255;SDS011;57229;51.432;-2.598;2023-09-12T12:10:43;4.43;;;4.03;;
56255;SDS011;57229;51.432;-2.598;2023-09-12T12:13:17;8.45;;;4.10;;
56255;SDS011;57229;51.432;-2.598;2023-09-12T12:15:44;4.50;;;4.10;;
56255;SDS011;57229;51.432;-2.598;2023-09-12T12:18:09;7.57;;;4.60;;
56255;SDS011;57229;51.432;-2.598;2023-09-12T12:20:35;5.50;;;4.30;;
56255;SDS011;57229;51.432;-2.598;2023-09-12T12:23:01;4.85;;;4.30;;
56255;SDS011;57229;51.432;-2.598;2023-09-12T12:25:28;6.47;;;4.43;;
56255;SDS011;57229;51.432;-2.598;2023-09-12T12:27:58;4.90;;;4.30;;
56255;SDS011;57229;51.432;-2.598;2023-09-12T12:30:24;4.75;;;4.25;;
56255;SDS011;57229;51.432;-2.598;2023-09-12T12:32:50;4.00;;;3.65;;
56255;SDS011;57229;51.432;-2.598;2023-09-12T12:35:17;5.85;;;4.22;;
56255;SDS011;57229;51.432;-2.598;2023-09-12T12:37:43;4.35;;;3.90;;
56255;SDS011;57229;51.432;-2.598;2023-09-12T12:40:12;10.52;;;4.10;;
56255;SDS011;57229;51.432;-2.598;2023-09-12T12:42:39;4.38;;;3.80;;
56255;SDS011;57229;51.432;-2.598;2023-09-12T12:45:13;5.65;;;4.25;;
56255;SDS011;57229;51.432;-2.598;2023-09-12T12:47:43;6.70;;;3.90;;
56255;SDS011;57229;51.432;-2.598;2023-09-12T12:50:14;4.18;;;3.88;;
56255;SDS011;57229;51.432;-2.598;2023-09-12T12:52:40;4.93;;;3.80;;
56255;SDS011;57229;51.432;-2.598;2023-09-12T12:55:07;4.28;;;3.90;;
56255;SDS011;57229;51.432;-2.598;2023-09-12T12:57:36;4.47;;;4.07;;
56255;SDS011;57229;51.432;-2.598;2023-09-12T13:00:14;4.47;;;3.90;;
56255;SDS011;57229;51.432;-2.598;2023-09-12T13:02:41;4.72;;;4.20;;
56255;SDS011;57229;51.432;-2.598;2023-09-12T13:05:24;5.80;;;4.20;;
56255;SDS011;57229;51.432;-2.598;2023-09-12T13:07:51;4.38;;;4.05;;
56255;SDS011;57229;51.432;-2.598;2023-09-12T13:10:18;4.55;;;4.15;;
56255;SDS011;57229;51.432;-2.598;2023-09-12T13:12:44;4.60;;;4.20;;
56255;SDS011;57229;51.432;-2.598;2023-09-12T13:15:11;7.05;;;4.00;;
56255;SDS011;57229;51.432;-2.598;2023-09-12T13:17:37;5.20;;;3.80;;
56255;SDS011;57229;51.432;-2.598;2023-09-12T13:20:03;4.40;;;4.00;;
56255;SDS011;57229;51.432;-2.598;2023-09-12T13:22:29;4.45;;;4.15;;
56255;SDS011;57229;51.432;-2.598;2023-09-12T13:24:54;4.60;;;4.22;;
56255;SDS011;57229;51.432;-2.598;2023-09-12T13:27:20;7.38;;;4.40;;
56255;SDS011;57229;51.432;-2.598;2023-09-12T13:29:46;6.18;;;4.50;;
56255;SDS011;57229;51.432;-2.598;2023-09-12T13:32:13;6.57;;;4.47;;
56255;SDS011;57229;51.432;-2.598;2023-09-12T13:34:40;4.82;;;4.40;;
56255;SDS011;57229;51.432;-2.598;2023-09-12T13:37:06;6.78;;;4.60;;
56255;SDS011;57229;51.432;-2.598;2023-09-12T13:39:31;6.05;;;4.32;;
56255;SDS011;57229;51.432;-2.598;2023-09-12T13:41:57;6.38;;;4.60;;
56255;SDS011;57229;51.432;-2.598;2023-09-12T13:44:25;9.00;;;4.50;;
56255;SDS011;57229;51.432;-2.598;2023-09-12T13:46:50;5.88;;;4.30;;
56255;SDS011;57229;51.432;-2.598;2023-09-12T13:49:16;5.47;;;4.47;;
56255;SDS011;57229;51.432;-2.598;2023-09-12T13:51:41;4.93;;;4.45;;
56255;SDS011;57229;51.432;-2.598;2023-09-12T13:54:07;5.82;;;4.80;;
56255;SDS011;57229;51.432;-2.598;2023-09-12T13:56:39;6.95;;;4.70;;
56255;SDS011;57229;51.432;-2.598;2023-09-12T13:59:05;6.82;;;4.60;;
56255;SDS011;57229;51.432;-2.598;2023-09-12T14:01:31;6.82;;;5.18;;
56255;SDS011;57229;51.432;-2.598;2023-09-12T14:03:57;4.70;;;4.30;;
56255;SDS011;57229;51.432;-2.598;2023-09-12T14:06:23;8.38;;;4.38;;
56255;SDS011;57229;51.432;-2.598;2023-09-12T14:08:48;5.68;;;4.50;;
56255;SDS011;57229;51.432;-2.598;2023-09-12T14:11:17;9.05;;;4.50;;
56255;SDS011;57229;51.432;-2.598;2023-09-12T14:13:43;5.25;;;4.38;;
56255;SDS011;57229;51.432;-2.598;2023-09-12T14:16:08;5.85;;;4.50;;
56255;SDS011;57229;51.432;-2.598;2023-09-12T14:18:34;5.32;;;4.40;;
56255;SDS011;57229;51.432;-2.598;2023-09-12T14:21:00;5.85;;;4.60;;
56255;SDS011;57229;51.432;-2.598;2023-09-12T14:23:25;4.90;;;4.40;;
56255;SDS011;57229;51.432;-2.598;2023-09-12T14:25:51;5.85;;;4.63;;
56255;SDS011;57229;51.432;-2.598;2023-09-12T14:28:17;4.82;;;4.43;;
56255;SDS011;57229;51.432;-2.598;2023-09-12T14:30:42;5.43;;;4.85;;
56255;SDS011;57229;51.432;-2.598;2023-09-12T14:33:10;6.25;;;4.60;;
56255;SDS011;57229;51.432;-2.598;2023-09-12T14:35:36;5.00;;;4.60;;
56255;SDS011;57229;51.432;-2.598;2023-09-12T14:38:02;5.15;;;4.68;;
56255;SDS011;57229;51.432;-2.598;2023-09-12T14:40:29;6.80;;;4.82;;
56255;SDS011;57229;51.432;-2.598;2023-09-12T14:42:55;4.80;;;4.40;;
56255;SDS011;57229;51.432;-2.598;2023-09-12T14:45:20;6.90;;;4.65;;
56255;SDS011;57229;51.432;-2.598;2023-09-12T14:47:46;5.20;;;4.55;;
56255;SDS011;57229;51.432;-2.598;2023-09-12T14:50:12;6.43;;;4.93;;
56255;SDS011;57229;51.432;-2.598;2023-09-12T14:52:38;6.13;;;4.65;;